Terminal Aerodrome Forecast
Issued by NWS

Home | Current Version | Previous Version | Graphics & Text | Print | Product List | Glossary On
Versions: 1 2 3 4 5 6 7 8 9 10 11 12 13 14 15 16
006
FTUS43 KTOP 200200 AAA
TAFMHK
TAF AMD
KMHK 200200Z 2002/2024 15009KT P6SM SCT020
     FM200400 16008KT 5SM BR SCT015 BKN025
     FM200700 18010KT 3SM -SHRA BR OVC011
     FM201100 18008KT 4SM BR OVC008
     FM201700 21011KT P6SM BKN035
     FM202100 25010KT P6SM SCT150=

USA.gov is the U.S. government's official web portal to all federal, state and local government web resources and services.